sensor_id;sensor_type;location;lat;lon;timestamp;P1;durP1;ratioP1;P2;durP2;ratioP2
50555;SDS011;36508;52.512;13.450;2023-04-10T00:01:50;18.10;;;15.17;;
50555;SDS011;36508;52.512;13.450;2023-04-10T00:04:16;17.27;;;14.77;;
50555;SDS011;36508;52.512;13.450;2023-04-10T00:06:46;18.40;;;15.60;;
50555;SDS011;36508;52.512;13.450;2023-04-10T00:09:13;16.80;;;15.00;;
50555;SDS011;36508;52.512;13.450;2023-04-10T00:11:39;15.07;;;13.67;;
50555;SDS011;36508;52.512;13.450;2023-04-10T00:14:05;18.67;;;16.77;;
50555;SDS011;36508;52.512;13.450;2023-04-10T00:16:31;16.80;;;14.30;;
50555;SDS011;36508;52.512;13.450;2023-04-10T00:18:57;22.57;;;17.30;;
50555;SDS011;36508;52.512;13.450;2023-04-10T00:21:24;14.37;;;12.70;;
50555;SDS011;36508;52.512;13.450;2023-04-10T00:23:50;18.53;;;16.53;;
50555;SDS011;36508;52.512;13.450;2023-04-10T00:26:16;17.73;;;15.03;;
50555;SDS011;36508;52.512;13.450;2023-04-10T00:28:42;19.40;;;16.83;;
50555;SDS011;36508;52.512;13.450;2023-04-10T00:31:07;17.13;;;14.97;;
50555;SDS011;36508;52.512;13.450;2023-04-10T00:33:33;17.57;;;15.70;;
50555;SDS011;36508;52.512;13.450;2023-04-10T00:35:58;19.10;;;17.30;;
50555;SDS011;36508;52.512;13.450;2023-04-10T00:38:24;16.63;;;13.57;;
50555;SDS011;36508;52.512;13.450;2023-04-10T00:40:50;20.53;;;18.43;;
50555;SDS011;36508;52.512;13.450;2023-04-10T00:43:19;18.33;;;16.00;;
50555;SDS011;36508;52.512;13.450;2023-04-10T00:45:46;20.23;;;15.73;;
50555;SDS011;36508;52.512;13.450;2023-04-10T00:48:13;18.27;;;16.07;;
50555;SDS011;36508;52.512;13.450;2023-04-10T00:50:40;22.97;;;15.90;;
50555;SDS011;36508;52.512;13.450;2023-04-10T00:53:06;19.47;;;17.20;;
50555;SDS011;36508;52.512;13.450;2023-04-10T00:55:32;19.70;;;17.00;;
50555;SDS011;36508;52.512;13.450;2023-04-10T00:57:58;22.63;;;18.23;;
50555;SDS011;36508;52.512;13.450;2023-04-10T01:00:24;16.50;;;14.90;;
50555;SDS011;36508;52.512;13.450;2023-04-10T01:02:50;22.33;;;17.60;;
50555;SDS011;36508;52.512;13.450;2023-04-10T01:05:16;27.43;;;19.97;;
50555;SDS011;36508;52.512;13.450;2023-04-10T01:12:50;17.40;;;15.67;;
50555;SDS011;36508;52.512;13.450;2023-04-10T01:15:25;18.93;;;16.73;;
50555;SDS011;36508;52.512;13.450;2023-04-10T01:17:56;19.67;;;16.90;;
50555;SDS011;36508;52.512;13.450;2023-04-10T01:20:23;20.50;;;16.80;;
50555;SDS011;36508;52.512;13.450;2023-04-10T01:25:58;21.20;;;15.83;;
50555;SDS011;36508;52.512;13.450;2023-04-10T01:31:12;20.17;;;18.20;;
50555;SDS011;36508;52.512;13.450;2023-04-10T01:33:44;20.93;;;18.87;;
50555;SDS011;36508;52.512;13.450;2023-04-10T01:36:20;21.93;;;18.13;;
50555;SDS011;36508;52.512;13.450;2023-04-10T01:38:50;28.97;;;22.33;;
50555;SDS011;36508;52.512;13.450;2023-04-10T01:41:19;24.57;;;21.03;;
50555;SDS011;36508;52.512;13.450;2023-04-10T01:43:47;24.37;;;21.73;;
50555;SDS011;36508;52.512;13.450;2023-04-10T01:46:16;22.57;;;20.03;;
50555;SDS011;36508;52.512;13.450;2023-04-10T01:48:44;23.03;;;20.37;;
50555;SDS011;36508;52.512;13.450;2023-04-10T01:51:11;23.33;;;18.57;;
50555;SDS011;36508;52.512;13.450;2023-04-10T01:53:38;26.77;;;21.53;;
50555;SDS011;36508;52.512;13.450;2023-04-10T01:56:07;24.40;;;21.63;;
50555;SDS011;36508;52.512;13.450;2023-04-10T01:58:34;24.60;;;21.77;;
50555;SDS011;36508;52.512;13.450;2023-04-10T02:01:01;30.97;;;24.53;;
50555;SDS011;36508;52.512;13.450;2023-04-10T02:03:27;26.00;;;23.20;;
50555;SDS011;36508;52.512;13.450;2023-04-10T02:08:36;26.13;;;23.50;;
50555;SDS011;36508;52.512;13.450;2023-04-10T02:11:10;22.80;;;20.40;;
50555;SDS011;36508;52.512;13.450;2023-04-10T02:13:40;28.23;;;22.70;;
50555;SDS011;36508;52.512;13.450;2023-04-10T02:16:06;24.60;;;21.47;;
50555;SDS011;36508;52.512;13.450;2023-04-10T02:18:33;27.50;;;24.70;;
50555;SDS011;36508;52.512;13.450;2023-04-10T02:21:01;28.97;;;20.80;;
50555;SDS011;36508;52.512;13.450;2023-04-10T02:23:27;25.03;;;20.90;;
50555;SDS011;36508;52.512;13.450;2023-04-10T02:25:53;28.77;;;23.70;;
50555;SDS011;36508;52.512;13.450;2023-04-10T02:28:22;22.90;;;20.20;;
50555;SDS011;36508;52.512;13.450;2023-04-10T02:30:49;30.17;;;25.93;;
50555;SDS011;36508;52.512;13.450;2023-04-10T02:33:15;27.73;;;24.63;;
50555;SDS011;36508;52.512;13.450;2023-04-10T02:35:40;27.50;;;22.57;;
50555;SDS011;36508;52.512;13.450;2023-04-10T02:38:06;23.70;;;21.10;;
50555;SDS011;36508;52.512;13.450;2023-04-10T02:40:32;25.20;;;21.97;;
50555;SDS011;36508;52.512;13.450;2023-04-10T02:42:59;23.50;;;21.00;;
50555;SDS011;36508;52.512;13.450;2023-04-10T02:45:25;23.17;;;20.37;;
50555;SDS011;36508;52.512;13.450;2023-04-10T02:47:51;22.30;;;19.90;;
50555;SDS011;36508;52.512;13.450;2023-04-10T02:50:18;24.40;;;21.87;;
50555;SDS011;36508;52.512;13.450;2023-04-10T02:52:44;22.73;;;20.50;;
50555;SDS011;36508;52.512;13.450;2023-04-10T02:55:10;24.57;;;21.93;;
50555;SDS011;36508;52.512;13.450;2023-04-10T02:57:36;25.33;;;22.43;;
50555;SDS011;36508;52.512;13.450;2023-04-10T03:00:03;25.23;;;22.63;;
50555;SDS011;36508;52.512;13.450;2023-04-10T03:02:30;29.43;;;23.13;;
50555;SDS011;36508;52.512;13.450;2023-04-10T03:04:56;27.80;;;23.70;;
50555;SDS011;36508;52.512;13.450;2023-04-10T03:07:23;27.37;;;23.17;;
50555;SDS011;36508;52.512;13.450;2023-04-10T03:09:49;26.77;;;23.97;;
50555;SDS011;36508;52.512;13.450;2023-04-10T03:12:15;28.80;;;23.23;;
50555;SDS011;36508;52.512;13.450;2023-04-10T03:14:42;29.80;;;24.93;;
50555;SDS011;36508;52.512;13.450;2023-04-10T03:17:07;30.97;;;24.30;;
50555;SDS011;36508;52.512;13.450;2023-04-10T03:19:33;34.37;;;25.03;;
50555;SDS011;36508;52.512;13.450;2023-04-10T03:21:59;29.90;;;26.50;;
50555;SDS011;36508;52.512;13.450;2023-04-10T03:24:24;27.60;;;24.70;;
50555;SDS011;36508;52.512;13.450;2023-04-10T03:26:51;33.43;;;26.80;;
50555;SDS011;36508;52.512;13.450;2023-04-10T03:29:16;39.37;;;29.63;;
50555;SDS011;36508;52.512;13.450;2023-04-10T03:31:43;30.33;;;25.77;;
50555;SDS011;36508;52.512;13.450;2023-04-10T03:34:09;30.40;;;27.10;;
50555;SDS011;36508;52.512;13.450;2023-04-10T03:36:34;28.33;;;25.40;;
50555;SDS011;36508;52.512;13.450;2023-04-10T03:39:00;32.50;;;27.07;;
50555;SDS011;36508;52.512;13.450;2023-04-10T03:41:26;29.83;;;26.63;;
50555;SDS011;36508;52.512;13.450;2023-04-10T03:43:51;33.40;;;25.87;;
50555;SDS011;36508;52.512;13.450;2023-04-10T03:46:17;29.27;;;25.77;;
50555;SDS011;36508;52.512;13.450;2023-04-10T03:48:44;27.53;;;24.30;;
50555;SDS011;36508;52.512;13.450;2023-04-10T03:51:10;31.77;;;26.47;;
50555;SDS011;36508;52.512;13.450;2023-04-10T03:53:36;30.13;;;26.87;;
50555;SDS011;36508;52.512;13.450;2023-04-10T03:56:03;29.13;;;25.77;;
50555;SDS011;36508;52.512;13.450;2023-04-10T03:58:29;31.20;;;26.70;;
50555;SDS011;36508;52.512;13.450;2023-04-10T04:00:55;28.33;;;24.93;;
50555;SDS011;36508;52.512;13.450;2023-04-10T04:03:21;33.13;;;26.00;;
50555;SDS011;36508;52.512;13.450;2023-04-10T04:05:47;31.43;;;26.93;;
50555;SDS011;36508;52.512;13.450;2023-04-10T04:08:13;33.93;;;28.53;;
50555;SDS011;36508;52.512;13.450;2023-04-10T04:10:39;32.83;;;26.70;;
50555;SDS011;36508;52.512;13.450;2023-04-10T04:13:05;32.30;;;28.87;;
50555;SDS011;36508;52.512;13.450;2023-04-10T04:15:30;32.90;;;29.50;;
50555;SDS011;36508;52.512;13.450;2023-04-10T04:17:59;29.20;;;24.37;;
50555;SDS011;36508;52.512;13.450;2023-04-10T04:20:25;26.40;;;23.30;;
50555;SDS011;36508;52.512;13.450;2023-04-10T04:22:51;27.23;;;23.93;;
50555;SDS011;36508;52.512;13.450;2023-04-10T04:25:17;30.57;;;26.77;;
50555;SDS011;36508;52.512;13.450;2023-04-10T04:27:44;28.07;;;24.00;;
50555;SDS011;36508;52.512;13.450;2023-04-10T04:30:10;27.93;;;25.23;;
50555;SDS011;36508;52.512;13.450;2023-04-10T04:32:35;26.17;;;23.50;;
50555;SDS011;36508;52.512;13.450;2023-04-10T04:35:01;26.83;;;22.87;;
50555;SDS011;36508;52.512;13.450;2023-04-10T04:37:27;37.80;;;24.13;;
50555;SDS011;36508;52.512;13.450;2023-04-10T04:39:52;25.27;;;22.47;;
50555;SDS011;36508;52.512;13.450;2023-04-10T04:42:18;23.67;;;21.33;;
50555;SDS011;36508;52.512;13.450;2023-04-10T04:44:44;27.17;;;24.03;;
50555;SDS011;36508;52.512;13.450;2023-04-10T04:47:09;24.60;;;22.00;;
50555;SDS011;36508;52.512;13.450;2023-04-10T04:49:35;27.07;;;21.67;;
50555;SDS011;36508;52.512;13.450;2023-04-10T04:52:01;28.57;;;24.43;;
50555;SDS011;36508;52.512;13.450;2023-04-10T04:54:26;23.67;;;21.17;;
50555;SDS011;36508;52.512;13.450;2023-04-10T04:56:52;30.03;;;24.80;;
50555;SDS011;36508;52.512;13.450;2023-04-10T04:59:18;25.07;;;22.57;;
50555;SDS011;36508;52.512;13.450;2023-04-10T05:01:43;22.47;;;19.93;;
50555;SDS011;36508;52.512;13.450;2023-04-10T05:04:09;24.77;;;20.37;;
50555;SDS011;36508;52.512;13.450;2023-04-10T05:06:35;22.20;;;19.87;;
50555;SDS011;36508;52.512;13.450;2023-04-10T05:09:01;25.20;;;22.70;;
50555;SDS011;36508;52.512;13.450;2023-04-10T05:11:26;24.57;;;21.53;;
50555;SDS011;36508;52.512;13.450;2023-04-10T05:13:52;22.97;;;20.53;;
50555;SDS011;36508;52.512;13.450;2023-04-10T05:16:18;22.13;;;19.83;;
50555;SDS011;36508;52.512;13.450;2023-04-10T05:18:43;29.50;;;22.80;;
50555;SDS011;36508;52.512;13.450;2023-04-10T05:21:10;25.73;;;23.00;;
50555;SDS011;36508;52.512;13.450;2023-04-10T05:23:36;24.47;;;21.90;;
50555;SDS011;36508;52.512;13.450;2023-04-10T05:26:03;25.20;;;22.67;;
50555;SDS011;36508;52.512;13.450;2023-04-10T05:28:30;23.17;;;20.70;;
50555;SDS011;36508;52.512;13.450;2023-04-10T05:30:55;23.47;;;21.17;;
50555;SDS011;36508;52.512;13.450;2023-04-10T05:33:22;26.13;;;23.17;;
50555;SDS011;36508;52.512;13.450;2023-04-10T05:35:47;21.13;;;18.93;;
50555;SDS011;36508;52.512;13.450;2023-04-10T05:38:13;21.37;;;19.40;;
50555;SDS011;36508;52.512;13.450;2023-04-10T05:40:38;22.00;;;19.70;;
50555;SDS011;36508;52.512;13.450;2023-04-10T05:43:04;21.00;;;18.70;;
50555;SDS011;36508;52.512;13.450;2023-04-10T05:45:30;18.93;;;17.03;;
50555;SDS011;36508;52.512;13.450;2023-04-10T05:47:55;19.73;;;17.67;;
50555;SDS011;36508;52.512;13.450;2023-04-10T05:50:21;19.07;;;17.17;;
50555;SDS011;36508;52.512;13.450;2023-04-10T05:52:47;24.43;;;18.80;;
50555;SDS011;36508;52.512;13.450;2023-04-10T05:55:12;19.60;;;17.53;;
50555;SDS011;36508;52.512;13.450;2023-04-10T05:57:38;20.40;;;18.30;;
50555;SDS011;36508;52.512;13.450;2023-04-10T06:00:04;21.43;;;19.20;;
50555;SDS011;36508;52.512;13.450;2023-04-10T06:02:31;19.93;;;17.93;;
50555;SDS011;36508;52.512;13.450;2023-04-10T06:04:56;25.93;;;18.27;;
50555;SDS011;36508;52.512;13.450;2023-04-10T06:07:22;20.73;;;18.53;;
50555;SDS011;36508;52.512;13.450;2023-04-10T06:09:48;24.10;;;21.27;;
50555;SDS011;36508;52.512;13.450;2023-04-10T06:12:13;26.00;;;18.77;;
50555;SDS011;36508;52.512;13.450;2023-04-10T06:14:39;20.70;;;18.70;;
50555;SDS011;36508;52.512;13.450;2023-04-10T06:17:05;19.97;;;18.17;;
50555;SDS011;36508;52.512;13.450;2023-04-10T06:19:30;22.23;;;19.70;;
50555;SDS011;36508;52.512;13.450;2023-04-10T06:21:56;22.63;;;20.33;;
50555;SDS011;36508;52.512;13.450;2023-04-10T06:24:21;22.10;;;19.97;;
50555;SDS011;36508;52.512;13.450;2023-04-10T06:26:47;22.07;;;19.67;;
50555;SDS011;36508;52.512;13.450;2023-04-10T06:29:13;24.23;;;19.60;;
50555;SDS011;36508;52.512;13.450;2023-04-10T06:31:38;21.50;;;19.50;;
50555;SDS011;36508;52.512;13.450;2023-04-10T06:34:04;20.33;;;18.23;;
50555;SDS011;36508;52.512;13.450;2023-04-10T06:36:30;21.30;;;18.77;;
50555;SDS011;36508;52.512;13.450;2023-04-10T06:38:55;22.27;;;19.20;;
50555;SDS011;36508;52.512;13.450;2023-04-10T06:41:21;21.80;;;19.70;;
50555;SDS011;36508;52.512;13.450;2023-04-10T06:43:46;26.30;;;22.40;;
50555;SDS011;36508;52.512;13.450;2023-04-10T06:46:12;21.77;;;18.77;;
50555;SDS011;36508;52.512;13.450;2023-04-10T06:48:39;22.13;;;20.20;;
50555;SDS011;36508;52.512;13.450;2023-04-10T06:51:05;23.00;;;20.87;;
50555;SDS011;36508;52.512;13.450;2023-04-10T06:53:31;25.10;;;22.50;;
50555;SDS011;36508;52.512;13.450;2023-04-10T06:55:57;27.43;;;22.73;;
50555;SDS011;36508;52.512;13.450;2023-04-10T06:58:23;25.70;;;23.07;;
50555;SDS011;36508;52.512;13.450;2023-04-10T07:00:48;26.90;;;24.20;;
50555;SDS011;36508;52.512;13.450;2023-04-10T07:03:14;28.60;;;26.03;;
50555;SDS011;36508;52.512;13.450;2023-04-10T07:05:39;29.17;;;24.27;;
50555;SDS011;36508;52.512;13.450;2023-04-10T07:08:05;28.03;;;23.80;;
50555;SDS011;36508;52.512;13.450;2023-04-10T07:10:31;27.20;;;24.50;;
50555;SDS011;36508;52.512;13.450;2023-04-10T07:12:57;30.33;;;27.53;;
50555;SDS011;36508;52.512;13.450;2023-04-10T07:15:23;29.20;;;26.13;;
50555;SDS011;36508;52.512;13.450;2023-04-10T07:17:49;34.27;;;28.30;;
50555;SDS011;36508;52.512;13.450;2023-04-10T07:20:15;34.00;;;29.53;;
50555;SDS011;36508;52.512;13.450;2023-04-10T07:22:41;35.23;;;29.73;;
50555;SDS011;36508;52.512;13.450;2023-04-10T07:25:06;33.87;;;30.57;;
50555;SDS011;36508;52.512;13.450;2023-04-10T07:27:32;33.03;;;29.70;;
50555;SDS011;36508;52.512;13.450;2023-04-10T07:29:58;35.53;;;29.03;;
50555;SDS011;36508;52.512;13.450;2023-04-10T07:32:23;34.83;;;29.60;;
50555;SDS011;36508;52.512;13.450;2023-04-10T07:34:49;31.93;;;28.63;;
50555;SDS011;36508;52.512;13.450;2023-04-10T07:37:15;30.47;;;27.30;;
50555;SDS011;36508;52.512;13.450;2023-04-10T07:39:42;33.60;;;30.30;;
50555;SDS011;36508;52.512;13.450;2023-04-10T07:42:10;34.23;;;30.80;;
50555;SDS011;36508;52.512;13.450;2023-04-10T07:44:36;37.20;;;32.60;;
50555;SDS011;36508;52.512;13.450;2023-04-10T07:47:02;40.37;;;36.00;;
50555;SDS011;36508;52.512;13.450;2023-04-10T07:49:27;31.67;;;28.30;;
50555;SDS011;36508;52.512;13.450;2023-04-10T07:51:53;37.83;;;31.93;;
50555;SDS011;36508;52.512;13.450;2023-04-10T07:54:19;35.30;;;30.47;;
50555;SDS011;36508;52.512;13.450;2023-04-10T07:56:45;46.10;;;41.13;;
50555;SDS011;36508;52.512;13.450;2023-04-10T07:59:10;34.57;;;30.80;;
50555;SDS011;36508;52.512;13.450;2023-04-10T08:01:36;36.67;;;33.00;;
50555;SDS011;36508;52.512;13.450;2023-04-10T08:04:02;39.10;;;34.90;;
50555;SDS011;36508;52.512;13.450;2023-04-10T08:06:28;36.33;;;32.87;;
50555;SDS011;36508;52.512;13.450;2023-04-10T08:08:53;38.63;;;33.80;;
50555;SDS011;36508;52.512;13.450;2023-04-10T08:13:52;33.93;;;30.43;;
50555;SDS011;36508;52.512;13.450;2023-04-10T08:16:27;36.47;;;32.57;;
50555;SDS011;36508;52.512;13.450;2023-04-10T08:18:54;38.03;;;33.97;;
50555;SDS011;36508;52.512;13.450;2023-04-10T08:21:25;36.57;;;32.87;;
50555;SDS011;36508;52.512;13.450;2023-04-10T08:23:55;38.47;;;33.43;;
50555;SDS011;36508;52.512;13.450;2023-04-10T08:26:22;37.03;;;33.23;;
50555;SDS011;36508;52.512;13.450;2023-04-10T08:28:50;39.27;;;34.60;;
50555;SDS011;36508;52.512;13.450;2023-04-10T08:31:17;34.40;;;30.70;;
50555;SDS011;36508;52.512;13.450;2023-04-10T08:33:43;35.67;;;31.87;;
50555;SDS011;36508;52.512;13.450;2023-04-10T08:36:10;34.90;;;31.20;;
50555;SDS011;36508;52.512;13.450;2023-04-10T08:41:19;39.23;;;29.97;;
50555;SDS011;36508;52.512;13.450;2023-04-10T08:43:44;39.13;;;31.30;;
50555;SDS011;36508;52.512;13.450;2023-04-10T08:46:11;31.80;;;28.43;;
50555;SDS011;36508;52.512;13.450;2023-04-10T08:48:39;29.97;;;26.83;;
50555;SDS011;36508;52.512;13.450;2023-04-10T08:51:13;31.10;;;27.97;;
50555;SDS011;36508;52.512;13.450;2023-04-10T08:53:45;31.23;;;27.93;;
50555;SDS011;36508;52.512;13.450;2023-04-10T08:56:15;31.87;;;28.57;;
50555;SDS011;36508;52.512;13.450;2023-04-10T08:58:42;29.63;;;26.60;;
50555;SDS011;36508;52.512;13.450;2023-04-10T09:01:09;32.37;;;27.77;;
50555;SDS011;36508;52.512;13.450;2023-04-10T09:03:36;27.77;;;25.00;;
50555;SDS011;36508;52.512;13.450;2023-04-10T09:06:02;27.20;;;24.30;;
50555;SDS011;36508;52.512;13.450;2023-04-10T09:08:28;32.80;;;25.03;;
50555;SDS011;36508;52.512;13.450;2023-04-10T09:10:55;28.37;;;25.37;;
50555;SDS011;36508;52.512;13.450;2023-04-10T09:13:42;28.53;;;25.60;;
50555;SDS011;36508;52.512;13.450;2023-04-10T09:16:08;27.43;;;24.60;;
50555;SDS011;36508;52.512;13.450;2023-04-10T09:18:41;27.80;;;25.00;;
50555;SDS011;36508;52.512;13.450;2023-04-10T09:21:13;25.37;;;22.80;;
50555;SDS011;36508;52.512;13.450;2023-04-10T09:23:42;27.20;;;22.73;;
50555;SDS011;36508;52.512;13.450;2023-04-10T09:26:25;26.23;;;21.93;;
50555;SDS011;36508;52.512;13.450;2023-04-10T09:28:56;22.27;;;19.97;;
50555;SDS011;36508;52.512;13.450;2023-04-10T09:31:27;22.93;;;20.53;;
50555;SDS011;36508;52.512;13.450;2023-04-10T09:36:35;21.80;;;19.47;;
50555;SDS011;36508;52.512;13.450;2023-04-10T09:39:02;23.50;;;21.20;;
50555;SDS011;36508;52.512;13.450;2023-04-10T09:41:28;22.70;;;20.43;;
50555;SDS011;36508;52.512;13.450;2023-04-10T09:44:08;24.60;;;21.93;;
50555;SDS011;36508;52.512;13.450;2023-04-10T09:46:34;21.40;;;18.67;;
50555;SDS011;36508;52.512;13.450;2023-04-10T09:49:00;26.90;;;22.33;;
50555;SDS011;36508;52.512;13.450;2023-04-10T09:51:33;23.90;;;19.30;;
50555;SDS011;36508;52.512;13.450;2023-04-10T09:54:00;19.60;;;17.50;;
50555;SDS011;36508;52.512;13.450;2023-04-10T09:56:28;19.90;;;17.10;;
50555;SDS011;36508;52.512;13.450;2023-04-10T09:58:58;18.50;;;16.57;;
50555;SDS011;36508;52.512;13.450;2023-04-10T10:01:28;19.20;;;17.50;;
50555;SDS011;36508;52.512;13.450;2023-04-10T10:03:58;19.53;;;17.43;;
50555;SDS011;36508;52.512;13.450;2023-04-10T10:06:26;19.17;;;16.77;;
50555;SDS011;36508;52.512;13.450;2023-04-10T10:08:53;19.07;;;16.73;;
50555;SDS011;36508;52.512;13.450;2023-04-10T10:11:20;18.60;;;16.80;;
50555;SDS011;36508;52.512;13.450;2023-04-10T10:13:49;19.07;;;17.17;;
50555;SDS011;36508;52.512;13.450;2023-04-10T10:16:22;19.77;;;17.90;;
50555;SDS011;36508;52.512;13.450;2023-04-10T10:21:37;18.83;;;17.13;;
50555;SDS011;36508;52.512;13.450;2023-04-10T10:24:08;21.07;;;19.10;;
50555;SDS011;36508;52.512;13.450;2023-04-10T10:26:37;20.97;;;18.80;;
50555;SDS011;36508;52.512;13.450;2023-04-10T10:29:05;22.63;;;17.97;;
50555;SDS011;36508;52.512;13.450;2023-04-10T10:31:34;17.97;;;16.37;;
50555;SDS011;36508;52.512;13.450;2023-04-10T10:34:01;16.10;;;14.70;;
50555;SDS011;36508;52.512;13.450;2023-04-10T10:36:29;15.30;;;13.90;;
50555;SDS011;36508;52.512;13.450;2023-04-10T10:41:25;16.87;;;15.37;;
50555;SDS011;36508;52.512;13.450;2023-04-10T10:46:36;16.00;;;14.73;;
50555;SDS011;36508;52.512;13.450;2023-04-10T10:49:08;13.90;;;12.67;;
50555;SDS011;36508;52.512;13.450;2023-04-10T10:51:43;13.37;;;12.20;;
50555;SDS011;36508;52.512;13.450;2023-04-10T10:54:26;13.93;;;12.83;;
50555;SDS011;36508;52.512;13.450;2023-04-10T10:56:52;11.10;;;10.10;;
50555;SDS011;36508;52.512;13.450;2023-04-10T10:59:18;11.17;;;10.20;;
50555;SDS011;36508;52.512;13.450;2023-04-10T11:02:16;13.40;;;11.43;;
50555;SDS011;36508;52.512;13.450;2023-04-10T11:04:46;11.57;;;10.47;;
50555;SDS011;36508;52.512;13.450;2023-04-10T11:07:13;11.97;;;11.07;;
50555;SDS011;36508;52.512;13.450;2023-04-10T11:09:43;13.30;;;12.30;;
50555;SDS011;36508;52.512;13.450;2023-04-10T11:12:11;17.63;;;16.13;;
50555;SDS011;36508;52.512;13.450;2023-04-10T11:14:37;13.30;;;12.20;;
50555;SDS011;36508;52.512;13.450;2023-04-10T11:17:03;10.90;;;10.10;;
50555;SDS011;36508;52.512;13.450;2023-04-10T11:19:29;12.60;;;11.67;;
50555;SDS011;36508;52.512;13.450;2023-04-10T11:22:23;14.17;;;13.10;;
50555;SDS011;36508;52.512;13.450;2023-04-10T11:27:43;17.07;;;15.47;;
50555;SDS011;36508;52.512;13.450;2023-04-10T11:33:08;12.40;;;11.37;;
50555;SDS011;36508;52.512;13.450;2023-04-10T11:35:43;13.50;;;12.43;;
50555;SDS011;36508;52.512;13.450;2023-04-10T11:38:13;12.57;;;11.33;;
50555;SDS011;36508;52.512;13.450;2023-04-10T11:40:57;12.63;;;11.63;;
50555;SDS011;36508;52.512;13.450;2023-04-10T11:43:27;10.50;;;9.73;;
50555;SDS011;36508;52.512;13.450;2023-04-10T11:46:01;11.20;;;10.30;;
50555;SDS011;36508;52.512;13.450;2023-04-10T11:48:28;10.73;;;9.87;;
50555;SDS011;36508;52.512;13.450;2023-04-10T11:50:54;11.97;;;10.97;;
50555;SDS011;36508;52.512;13.450;2023-04-10T11:53:20;12.50;;;11.70;;
50555;SDS011;36508;52.512;13.450;2023-04-10T11:55:46;11.33;;;10.33;;
50555;SDS011;36508;52.512;13.450;2023-04-10T11:58:21;10.77;;;9.90;;
50555;SDS011;36508;52.512;13.450;2023-04-10T12:00:55;8.83;;;8.23;;
50555;SDS011;36508;52.512;13.450;2023-04-10T12:03:37;11.73;;;10.70;;
50555;SDS011;36508;52.512;13.450;2023-04-10T12:06:09;11.50;;;10.60;;
50555;SDS011;36508;52.512;13.450;2023-04-10T12:08:37;11.00;;;10.20;;
50555;SDS011;36508;52.512;13.450;2023-04-10T12:11:16;12.83;;;11.60;;
50555;SDS011;36508;52.512;13.450;2023-04-10T12:13:44;12.40;;;11.40;;
50555;SDS011;36508;52.512;13.450;2023-04-10T12:16:10;14.13;;;11.80;;
50555;SDS011;36508;52.512;13.450;2023-04-10T12:18:36;12.73;;;11.73;;
50555;SDS011;36508;52.512;13.450;2023-04-10T12:21:02;12.90;;;11.57;;
50555;SDS011;36508;52.512;13.450;2023-04-10T12:23:29;9.53;;;8.73;;
50555;SDS011;36508;52.512;13.450;2023-04-10T12:26:05;7.70;;;7.20;;
50555;SDS011;36508;52.512;13.450;2023-04-10T12:28:32;9.37;;;8.57;;
50555;SDS011;36508;52.512;13.450;2023-04-10T12:30:57;8.40;;;7.90;;
50555;SDS011;36508;52.512;13.450;2023-04-10T12:33:24;9.83;;;8.77;;
50555;SDS011;36508;52.512;13.450;2023-04-10T12:35:50;9.57;;;8.57;;
50555;SDS011;36508;52.512;13.450;2023-04-10T12:41:10;9.17;;;8.50;;
50555;SDS011;36508;52.512;13.450;2023-04-10T12:43:40;8.70;;;7.80;;
50555;SDS011;36508;52.512;13.450;2023-04-10T12:46:09;9.30;;;8.70;;
50555;SDS011;36508;52.512;13.450;2023-04-10T12:48:50;8.77;;;7.83;;
50555;SDS011;36508;52.512;13.450;2023-04-10T12:51:16;7.43;;;6.93;;
50555;SDS011;36508;52.512;13.450;2023-04-10T12:53:42;11.07;;;9.20;;
50555;SDS011;36508;52.512;13.450;2023-04-10T12:56:11;9.83;;;9.13;;
50555;SDS011;36508;52.512;13.450;2023-04-10T12:58:39;9.33;;;8.53;;
50555;SDS011;36508;52.512;13.450;2023-04-10T13:01:08;8.00;;;7.40;;
50555;SDS011;36508;52.512;13.450;2023-04-10T13:03:37;8.70;;;8.10;;
50555;SDS011;36508;52.512;13.450;2023-04-10T13:06:06;9.30;;;8.50;;
50555;SDS011;36508;52.512;13.450;2023-04-10T13:08:35;9.37;;;8.73;;
50555;SDS011;36508;52.512;13.450;2023-04-10T13:11:01;8.83;;;7.90;;
50555;SDS011;36508;52.512;13.450;2023-04-10T13:13:30;8.73;;;8.03;;
50555;SDS011;36508;52.512;13.450;2023-04-10T13:15:56;8.87;;;8.20;;
50555;SDS011;36508;52.512;13.450;2023-04-10T13:18:25;10.00;;;9.30;;
50555;SDS011;36508;52.512;13.450;2023-04-10T13:20:51;10.10;;;9.50;;
50555;SDS011;36508;52.512;13.450;2023-04-10T13:23:16;9.07;;;8.50;;
50555;SDS011;36508;52.512;13.450;2023-04-10T13:25:42;10.30;;;9.00;;
50555;SDS011;36508;52.512;13.450;2023-04-10T13:28:08;11.03;;;9.97;;
50555;SDS011;36508;52.512;13.450;2023-04-10T13:30:35;10.77;;;9.97;;
50555;SDS011;36508;52.512;13.450;2023-04-10T13:33:06;9.30;;;8.60;;
50555;SDS011;36508;52.512;13.450;2023-04-10T13:35:35;10.63;;;9.70;;
50555;SDS011;36508;52.512;13.450;2023-04-10T13:38:01;11.27;;;10.27;;
50555;SDS011;36508;52.512;13.450;2023-04-10T13:40:27;11.47;;;10.57;;
50555;SDS011;36508;52.512;13.450;2023-04-10T13:42:53;9.40;;;8.70;;
50555;SDS011;36508;52.512;13.450;2023-04-10T13:45:18;10.13;;;9.43;;
50555;SDS011;36508;52.512;13.450;2023-04-10T13:47:44;9.27;;;8.50;;
50555;SDS011;36508;52.512;13.450;2023-04-10T13:50:10;9.27;;;8.57;;
50555;SDS011;36508;52.512;13.450;2023-04-10T13:52:35;9.30;;;8.70;;
50555;SDS011;36508;52.512;13.450;2023-04-10T13:55:01;9.20;;;8.47;;
50555;SDS011;36508;52.512;13.450;2023-04-10T13:57:27;8.80;;;8.30;;
50555;SDS011;36508;52.512;13.450;2023-04-10T13:59:52;8.30;;;7.50;;
50555;SDS011;36508;52.512;13.450;2023-04-10T14:02:18;9.17;;;8.57;;
50555;SDS011;36508;52.512;13.450;2023-04-10T14:04:43;9.23;;;8.30;;
50555;SDS011;36508;52.512;13.450;2023-04-10T14:07:10;8.30;;;7.47;;
50555;SDS011;36508;52.512;13.450;2023-04-10T14:09:36;9.53;;;8.93;;
50555;SDS011;36508;52.512;13.450;2023-04-10T14:12:02;9.10;;;8.40;;
50555;SDS011;36508;52.512;13.450;2023-04-10T14:14:27;8.83;;;8.13;;
50555;SDS011;36508;52.512;13.450;2023-04-10T14:16:53;8.60;;;8.00;;
50555;SDS011;36508;52.512;13.450;2023-04-10T14:19:19;8.53;;;7.90;;
50555;SDS011;36508;52.512;13.450;2023-04-10T14:21:44;9.30;;;8.50;;
50555;SDS011;36508;52.512;13.450;2023-04-10T14:24:10;8.87;;;8.00;;
50555;SDS011;36508;52.512;13.450;2023-04-10T14:26:36;9.40;;;8.80;;
50555;SDS011;36508;52.512;13.450;2023-04-10T14:29:01;10.60;;;9.63;;
50555;SDS011;36508;52.512;13.450;2023-04-10T14:31:27;10.30;;;9.60;;
50555;SDS011;36508;52.512;13.450;2023-04-10T14:33:53;9.50;;;8.90;;
50555;SDS011;36508;52.512;13.450;2023-04-10T14:36:18;9.90;;;8.90;;
50555;SDS011;36508;52.512;13.450;2023-04-10T14:38:44;11.93;;;10.00;;
50555;SDS011;36508;52.512;13.450;2023-04-10T14:41:09;10.30;;;9.43;;
50555;SDS011;36508;52.512;13.450;2023-04-10T14:43:36;12.20;;;11.30;;
50555;SDS011;36508;52.512;13.450;2023-04-10T14:46:05;11.27;;;10.37;;
50555;SDS011;36508;52.512;13.450;2023-04-10T14:48:38;11.97;;;10.97;;
50555;SDS011;36508;52.512;13.450;2023-04-10T14:51:06;12.07;;;10.53;;
50555;SDS011;36508;52.512;13.450;2023-04-10T14:53:36;10.67;;;9.80;;